Sweetwater River (73, 625) Station Data

Red Flag Warning: No
Fire Weather Zone: 250
SDGE Region: Mountain Empire
Lat/Lon: 32.832/-116.628

Observations

Time Wind Speed/Gust Temp(F) RH Fuel Moist Fuel Temp(F) Dewpt(F) Tmax(F) Tmin(F) Accum Precip 10-min Precip SL Press(mb)
5/24 8:30am 81 5 G 8 65° 44% - - 42° 65.4° 51° - - -
5/24 8:20am 81 6 G 8 62° 46% - - 41° 64° 51° - - -
5/24 8:10am 82 6 G 8 61° 48% - - 41° 62.2° 51° - - -
5/24 8:00am 83 4 G 7 60° 49% - - 41° 62.2° 51° - - -
5/24 7:50am 72 3 G 5 60° 47% - - 40° 62.2° 51° - - -
5/24 7:40am 83 4 G 6 61° 45% - - 39° 62.2° 51° - - -
5/24 7:30am 74 3 G 5 62° 40% - - 37° 62.2° 51° - - -
5/24 7:20am 78 4 G 6 61° 39% - - 36° 61.8° 51° - - -
5/24 7:10am 85 7 G 9 58° 42% - - 35° 59.7° 51° - - -
5/24 7:00am 72 6 G 11 57° 42% - - 34° 59.7° 51° - - -
5/24 6:50am 73 7 G 11 56° 45% - - 35° 59.7° 51° - - -
5/24 6:40am 81 7 G 11 55° 45% - - 34° 59.7° 51° - - -
5/24 6:30am 76 7 G 11 55° 45% - - 34° 59.7° 51° - - -
5/24 6:20am 74 6 G 9 54° 47% - - 34° 59.7° 51° - - -
5/24 6:10am 75 6 G 11 54° 47% - - 34° 59.7° 51° - - -
5/24 6:00am 74 6 G 11 54° 46% - - 34° 59.7° 51° - - -
5/24 5:50am 75 7 G 10 54° 46% - - 34° 59.7° 51° - - -
5/24 5:40am 72 6 G 11 54° 46% - - 34° 59.7° 51° - - -
5/24 5:30am 73 6 G 12 53° 48% - - 33° 59.7° 51° - - -
5/24 5:20am 84 6 G 10 52° 48% - - 33° 59.7° 51° - - -
5/24 5:10am 79 8 G 11 51° 48% - - 33° 59.7° 51° - - -
5/24 5:00am 83 9 G 14 52° 47% - - 32° 59.7° 51.1° - - -
5/24 4:50am 81 7 G 11 52° 46% - - 32° 59.7° 51.5° - - -
5/24 4:40am 83 7 G 12 52° 45% - - 32° 59.7° 51.6° - - -
5/24 4:30am 82 7 G 10 52° 45% - - 32° 59.7° 51.8° - - -
5/24 4:20am 81 7 G 13 53° 45% - - 32° 59.7° 51.8° - - -
5/24 4:10am 80 7 G 10 53° 44% - - 32° 59.7° 52.6° - - -
5/24 4:00am 85 8 G 10 53° 43% - - 32° 59.7° 52.9° - - -
5/24 3:50am 79 8 G 12 53° 44% - - 32° 59.7° 52.9° - - -
5/24 3:40am 79 8 G 12 54° 44% - - 32° 59.7° 52.9° - - -
5/24 3:30am 78 7 G 12 56° 41% - - 33° 59.7° 53.3° - - -
5/24 3:20am 78 6 G 10 55° 43% - - 33° 59.7° 53.3° - - -
5/24 3:10am 80 7 G 11 54° 45% - - 33° 59.7° 53.3° - - -
5/24 3:00am 83 6 G 11 54° 46% - - 34° 59.7° 53.3° - - -
5/24 2:50am 82 8 G 13 54° 47% - - 34° 59.7° 53.3° - - -
5/24 2:40am 79 8 G 12 55° 46% - - 34° 59.7° 53.3° - - -
5/24 2:30am 81 8 G 13 56° 45% - - 35° 59.7° 53.3° - - -
5/24 2:20am 82 7 G 12 57° 44% - - 35° 59.7° 53.3° - - -
5/24 2:10am 85 5 G 8 56° 45% - - 35° 59.7° 53.3° - - -
5/24 2:00am 80 8 G 12 58° 44% - - 36° 59.7° 53.3° - - -
5/24 1:50am 87 6 G 11 58° 42% - - 35° 59.7° 53.3° - - -
5/24 1:40am 87 5 G 9 57° 42% - - 34° 59.7° 53.3° - - -
5/24 1:30am 93 3 G 10 55° 44% - - 34° 59.7° 53.3° - - -
5/24 1:20am 85 4 G 8 55° 44% - - 33° 59.7° 53.3° - - -
5/24 1:10am 82 5 G 10 54° 46% - - 34° 59.7° 53.3° - - -
5/24 1:00am 82 7 G 13 55° 45% - - 34° 59.7° 53.9° - - -
5/24 12:50am 76 8 G 12 55° 44% - - 34° 59.7° 54.7° - - -
5/24 12:40am 82 7 G 11 56° 41% - - 33° 59.7° 55.3° - - -
5/24 12:30am 86 5 G 9 58° 38% - - 33° 59.7° 57.1° - - -
5/24 12:20am 87 6 G 8 59° 37% - - 32° 59.7° 57.9° - - -
5/24 12:10am 83 5 G 8 58° 39% - - 33° 59° 57.9° - - -
5/24 12:00am 77 7 G 11 58° 39% - - 34° 86.3° 56.5° - - -
5/23 11:50pm 85 7 G 11 59° 40% - - 34° 86.3° 56.5° - - -
5/23 11:40pm 89 6 G 10 59° 39% - - 34° 86.3° 56.5° - - -
5/23 11:30pm 79 6 G 11 59° 41% - - 35° 86.3° 56.5° - - -
5/23 11:20pm 81 7 G 10 59° 41% - - 36° 86.3° 56.5° - - -
5/23 11:10pm 86 7 G 10 60° 41% - - 36° 86.3° 56.5° - - -
5/23 11:00pm 83 6 G 8 60° 41% - - 37° 86.3° 56.5° - - -
5/23 10:50pm 83 7 G 12 62° 39% - - 37° 86.3° 56.5° - - -
5/23 10:40pm 78 10 G 13 62° 42% - - 39° 86.3° 56.5° - - -
5/23 10:30pm 74 9 G 13 62° 44% - - 39° 86.3° 56.5° - - -
5/23 10:20pm 76 8 G 11 62° 43% - - 40° 86.3° 56.5° - - -
5/23 10:10pm 72 9 G 12 62° 46% - - 41° 86.3° 56.5° - - -
5/23 10:00pm 76 8 G 11 63° 46% - - 42° 86.3° 56.5° - - -
5/23 9:50pm 78 8 G 11 63° 48% - - 43° 86.3° 56.5° - - -
5/23 9:40pm 67 4 G 8 63° 50% - - 44° 86.3° 56.5° - - -
5/23 9:30pm 83 5 G 8 64° 50% - - 45° 86.3° 56.5° - - -
5/23 9:20pm 77 6 G 8 65° 51% - - 47° 86.3° 56.5° - - -
5/23 9:10pm 67 6 G 11 66° 50% - - 47° 86.3° 56.5° - - -
5/23 9:00pm 77 8 G 12 68° 50% - - 48° 86.3° 56.5° - - -
5/23 8:50pm 89 9 G 12 66° 53% - - 49° 86.3° 56.5° - - -
5/23 8:40pm 81 9 G 11 67° 51% - - 49° 86.3° 56.5° - - -
5/23 8:30pm 78 6 G 10 68° 51% - - 49° 86.3° 56.5° - - -
5/23 8:20pm 90 4 G 8 70° 48% - - 49° 86.3° 56.5° - - -
5/23 8:10pm 49 6 G 10 71° 44% - - 48° 86.3° 56.5° - - -
5/23 8:00pm 90 5 G 8 70° 51% - - 51° 86.3° 56.5° - - -
5/23 7:50pm 68 2 G 4 70° 53% - - 52° 86.3° 56.5° - - -
5/23 7:40pm 31 2 G 3 70° 52% - - 52° 86.3° 56.5° - - -
5/23 7:30pm 7 2 G 3 71° 51% - - 52° 86.3° 56.5° - - -
5/23 7:20pm 280 4 G 5 73° 48% - - 52° 86.3° 56.5° - - -
5/23 7:10pm 273 4 G 5 74° 45% - - 51° 86.3° 56.5° - - -
5/23 7:00pm 278 5 G 7 74° 43% - - 50° 86.3° 56.5° - - -
5/23 6:50pm 269 8 G 10 75° 40% - - 50° 86.3° 56.5° - - -
5/23 6:40pm 269 8 G 10 77° 36% - - 48° 86.3° 56.5° - - -
5/23 6:30pm 288 6 G 10 78° 34% - - 47° 86.3° 56.5° - - -
5/23 6:20pm 322 5 G 8 78° 36% - - 49° 86.3° 56.5° - - -
5/23 6:10pm 303 6 G 9 79° 37% - - 50° 86.3° 56.5° - - -
5/23 6:00pm 332 4 G 10 79° 39% - - 52° 86.3° 56.5° - - -
5/23 5:50pm 36 5 G 9 79° 39% - - 52° 86.3° 56.5° - - -
5/23 5:40pm 20 5 G 9 79° 38% - - 51° 86.3° 56.5° - - -
5/23 5:30pm 32 6 G 9 79° 37% - - 51° 86.3° 56.5° - - -
5/23 5:20pm 339 4 G 8 80° 34% - - 49° 86.3° 56.5° - - -
5/23 5:10pm 317 5 G 8 80° 32% - - 48° 86.3° 56.5° - - -
5/23 5:00pm 338 4 G 8 80° 35% - - 50° 86.3° 56.5° - - -
5/23 4:50pm 283 7 G 14 80° 39% - - 52° 86.3° 56.5° - - -
5/23 4:40pm 266 8 G 13 79° 42% - - 53° 86.3° 56.5° - - -
5/23 4:30pm 278 8 G 12 78° 42% - - 53° 86.3° 56.5° - - -
5/23 4:20pm 276 8 G 12 78° 40% - - 52° 86.3° 56.5° - - -
5/23 4:10pm 271 9 G 13 78° 41% - - 52° 86.3° 56.5° - - -
5/23 4:00pm 278 9 G 14 77° 45% - - 54° 86.3° 56.5° - - -
5/23 3:50pm 280 8 G 13 77° 47% - - 55° 86.3° 56.5° - - -
5/23 3:40pm 273 10 G 15 76° 49% - - 55° 86.3° 56.5° - - -
5/23 3:30pm 269 11 G 14 76° 50% - - 55° 86.3° 56.5° - - -
5/23 3:20pm 272 12 G 16 76° 49% - - 56° 86.3° 56.5° - - -
5/23 3:10pm 272 11 G 15 77° 49% - - 56° 86.3° 56.5° - - -
5/23 3:00pm 275 10 G 15 77° 48% - - 56° 86.3° 56.5° - - -
5/23 2:50pm 271 9 G 13 78° 47% - - 56° 86.3° 56.5° - - -
5/23 2:40pm 269 9 G 13 78° 47% - - 56° 86.3° 56.5° - - -
5/23 2:30pm 273 9 G 14 78° 46% - - 56° 86.3° 56.5° - - -
5/23 2:20pm 274 10 G 17 79° 45% - - 56° 86.3° 56.5° - - -
5/23 2:10pm 268 10 G 14 79° 43% - - 55° 86.3° 56.5° - - -
5/23 2:00pm 276 10 G 14 80° 41% - - 54° 86.3° 56.5° - - -
5/23 1:50pm 274 9 G 14 81° 39% - - 54° 86.3° 56.5° - - -
5/23 1:40pm 277 8 G 13 81° 39% - - 53° 86.3° 56.5° - - -
5/23 1:30pm 274 8 G 12 81° 39% - - 53° 86.3° 56.5° - - -
5/23 1:20pm 276 10 G 14 81° 37% - - 52° 86.3° 56.5° - - -
5/23 1:10pm 280 11 G 15 81° 35% - - 51° 86.3° 56.5° - - -
5/23 1:00pm 274 10 G 14 83° 28% - - 46° 86.3° 56.5° - - -
5/23 12:50pm 269 10 G 17 83° 28% - - 46° 86.3° 56.5° - - -
5/23 12:40pm 272 11 G 16 83° 27% - - 46° 86.3° 56.5° - - -
5/23 12:30pm 273 10 G 14 84° 25% - - 45° 86.3° 56.5° - - -
5/23 12:20pm 270 10 G 15 84° 25% - - 44° 86.3° 56.5° - - -
5/23 12:10pm 272 10 G 13 84° 24% - - 43° 86.3° 56.5° - - -
5/23 12:00pm 280 11 G 14 84° 22% - - 42° 86.3° 56.5° - - -
5/23 11:50am 277 10 G 15 85° 21% - - 40° 86.3° 56.5° - - -
5/23 11:40am 270 11 G 18 85° 18% - - 37° 86.3° 56.5° - - -
5/23 11:30am 274 9 G 13 85° 17% - - 36° 85.8° 56.5° - - -
5/23 11:20am 271 8 G 12 85° 19% - - 38° 85.7° 56.5° - - -
5/23 11:10am 260 7 G 12 85° 17% - - 35° 85.7° 56.5° - - -
5/23 11:00am 281 5 G 10 85° 18% - - 36° 85.5° 56.5° - - -
5/23 10:50am 271 6 G 10 84° 20% - - 39° 85.5° 56.5° - - -
5/23 10:40am 276 6 G 10 84° 21% - - 40° 85.5° 56.5° - - -
5/23 10:30am 279 5 G 8 83° 22% - - 40° 85.5° 56.5° - - -
5/23 10:20am 280 4 G 7 83° 26% - - 44° 85.5° 56.5° - - -
5/23 10:10am 284 5 G 7 82° 28% - - 45° 85.5° 56.5° - - -
5/23 10:00am 284 6 G 9 81° 29% - - 46° 85.5° 56.5° - - -
5/23 9:50am 276 6 G 9 80° 30% - - 46° 85.5° 56.5° - - -
5/23 9:40am 279 7 G 9 80° 31% - - 46° 85.5° 56.5° - - -
5/23 9:30am 272 7 G 8 82° 30% - - 47° 85.5° 56.5° - - -
5/23 9:20am 16 3 G 5 85° 24% - - 44° 85.5° 56.5° - - -
5/23 9:10am 49 2 G 4 83° 28% - - 47° 84.4° 56.5° - - -
5/23 9:00am 51 3 G 5 81° 33% - - 49° 82.2° 56.5° - - -
5/23 8:50am 54 3 G 5 80° 34% - - 49° 80.7° 56.5° - - -
5/23 8:40am 38 2 G 4 78° 35% - - 48° 79.6° 56.5° - - -
5/23 8:30am 35 2 G 5 77° 36% - - 48° 78.2° 56.5° - - -
5/23 8:20am 39 1 G 5 75° 37% - - 47° 76.9° 56.5° - - -
5/23 8:10am 72 5 G 9 72° 37% - - 45° 73.6° 56.5° - - -
5/23 8:00am 75 5 G 10 72° 37% - - 44° 72.6° 56.5° - - -
5/23 7:50am 78 4 G 10 70° 37% - - 43° 71.6° 56.5° - - -
5/23 7:40am 74 4 G 8 68° 38% - - 41° 68.8° 56.5° - - -
5/23 7:30am 70 2 G 6 67° 37% - - 40° 67.9° 56.5° - - -
5/23 7:20am 66 5 G 11 67° 36% - - 38° 67.1° 56.5° - - -
5/23 7:10am 70 6 G 12 66° 35% - - 37° 66.8° 56.5° - - -
5/23 7:00am 68 5 G 11 64° 35% - - 36° 65.2° 56.5° - - -
5/23 6:50am 61 4 G 9 63° 35% - - 35° 64.2° 56.5° - - -
5/23 6:40am 73 4 G 8 62° 35% - - 34° 62.6° 56.5° - - -
5/23 6:30am 64 3 G 8 61° 35% - - 33° 62.1° 56.5° - - -
5/23 6:20am 80 2 G 6 61° 35% - - 33° 61.3° 56.5° - - -
5/23 6:10am 359 1 G 5 60° 34% - - 32° 61° 56.5° - - -
5/23 6:00am 272 2 G 4 60° 35% - - 32° 60.8° 56.5° - - -